weather.gov     
National Weather Service

Terminal Aerodrome Forecast
NWS Homepage
This page is being discontinued on March 12, 2014.
The same data is available at this site. Please update your bookmarks.
Thank you, and we apologize for the inconvenience.
Please send an email to SR-SRH.Webmaster@noaa.gov with any concerns.


Current Version
Previous Version:    01  02  03  04  05  06  07  08  09  10  11  12  13  14  15  16  17  18  19  20  21  22  23  24  25  26  27  28  29  30  
   31  32  33  34  35  36  37  38  39  
[Printable]
504
FTUS43 KLSX 181700 RRA
TAFSUS
TAF
KSUS 181745Z 1818/1918 06004KT 5SM -SN BR SCT008 OVC015
      TEMPO 1818/1819 2SM -SN BR OVC008
     FM182000 06004KT 5SM BR SCT008 OVC015
     FM190200 00000KT 3SM BR OVC008
     FM190800 00000KT 1SM BR OVC003
     FM191500 VRB03KT 3SM BR OVC007=


U.S. Dept. of Commerce
NOAA National Weather Service
1325 East West Highway
Silver Spring, MD 20910
E-mail: w-nws.webmaster@noaa.gov
Page last modified: May 16, 2007
NATIONAL WEATHER SERVICE: for Safety, for Work, for Fun - FOR LIFE